Decoded Metar for OIII (TEHERAN in IRAN) (IATA:THR) | Meteo·Mobile Aviation Weather
aviador You're here:

OIII Decoded Metar

TEHERAN in IRAN
Report Time2019-03-21 01:00:00
UTC Time2019-03-21 01:29:11
Flight Rules vfr VFR
Wind300° at 04 kt
W.Decomp.*RWY 29: 4.0 kt HW 0.5 kt RCW
W.Rank300° ranks 2
Current wind is below 300° avg. (7.1)
Visibility9999 m
Phenomena:N/A
Clouds:Few 035 Hf
Expected CloudBase > 5,200 ft AGL from Temp-Dew spread
CeilingNone
Temp06°C (ISA -1)
Dew Point-7°C (39% RH)
AAT1.8°C
QNH1015 hPa
Density Alt3,750 ft
Elevation3,907 ft
Report Wrong Elevation
Raw Report
METAR OIII 210100Z 30004KT 9999 FEW035 06/M07 Q1015 A2998 NOSIG=

Extra information for OIII:More info

Metar Taf Metar & Taf Last 4 Metars F.Rules Stats Wind Profile Meteogram Temp Stats Airport Information Weather charts Add Link Nearby VenuesMetar ALERT Operation Metar Decoded Social comments